Aviation Digital Data Service (ADDS)

Output produced by TAFs form (1333 UTC 26 June 2016)
found at http://aviationweather.gov/adds/tafs/
 
KTEX 261129Z 2612/2712 13006KT P6SM FEW110 
     FM261430 VRB03KT P6SM FEW110 
     FM261600 27005KT P6SM SCT110 
     FM270200 13005KT P6SM FEW110 FEW250